Time;durP1;ratioP1;P1;durP2;ratioP2;P2;SDS_P1;SDS_P2;PMS_P1;PMS_P2;Temp;Humidity;BMP_temperature;BMP_pressure;BME280_temperature;BME280_humidity;BME280_pressure;Samples;Min_cycle;Max_cycle;Signal;HPM_P1;HPM_P2
2022/10/27 00:00:21;;;;;;;10.45;4.15;;;;;;;;;;4987784;28;20088;-80
2022/10/27 00:02:47;;;;;;;19.50;4.32;;;;;;;;;;4986322;28;20031;-80
2022/10/27 00:05:14;;;;;;;10.98;3.30;;;;;;;;;;4985089;28;20061;-79
2022/10/27 00:07:40;;;;;;;20.67;4.63;;;;;;;;;;4973782;28;20081;-79
2022/10/27 00:10:07;;;;;;;17.42;3.92;;;;;;;;;;4970627;28;20031;-80
2022/10/27 00:12:33;;;;;;;16.63;3.95;;;;;;;;;;4973992;28;20006;-79
2022/10/27 00:15:00;;;;;;;14.63;3.22;;;;;;;;;;4976453;28;20106;-80
2022/10/27 00:17:27;;;;;;;17.02;4.50;;;;;;;;;;4974180;28;20475;-79
2022/10/27 00:19:53;;;;;;;14.45;4.60;;;;;;;;;;4975462;28;20414;-79
2022/10/27 00:22:19;;;;;;;13.40;4.45;;;;;;;;;;4969945;28;20035;-79
2022/10/27 00:24:45;;;;;;;14.23;4.32;;;;;;;;;;4967439;28;20042;-81
2022/10/27 00:27:11;;;;;;;11.25;5.00;;;;;;;;;;4970259;28;20041;-79
2022/10/27 00:29:39;;;;;;;13.60;3.47;;;;;;;;;;4979664;28;20050;-79
2022/10/27 00:32:05;;;;;;;13.82;4.15;;;;;;;;;;4982895;28;20019;-79
2022/10/27 00:34:31;;;;;;;13.05;3.72;;;;;;;;;;4994883;28;20017;-79
2022/10/27 00:36:57;;;;;;;13.20;4.05;;;;;;;;;;4975695;28;20260;-79
2022/10/27 00:39:23;;;;;;;15.75;4.65;;;;;;;;;;4979199;28;20026;-79
2022/10/27 00:41:49;;;;;;;11.18;4.80;;;;;;;;;;4985702;28;20050;-79
2022/10/27 00:44:31;;;;;;;14.93;4.53;;;;;;;;;;4967151;28;20097;-80
2022/10/27 00:46:59;;;;;;;11.38;3.60;;;;;;;;;;4983600;28;20038;-79
2022/10/27 00:49:30;;;;;;;11.57;3.30;;;;;;;;;;4984683;28;20042;-79
2022/10/27 00:51:59;;;;;;;17.85;4.75;;;;;;;;;;4975237;28;20039;-79
2022/10/27 00:54:28;;;;;;;14.88;3.72;;;;;;;;;;4973076;28;20031;-79
2022/10/27 00:56:54;;;;;;;17.83;4.43;;;;;;;;;;4973296;28;20043;-79
2022/10/27 00:59:21;;;;;;;19.52;3.85;;;;;;;;;;4976252;28;20064;-79
2022/10/27 01:01:49;;;;;;;17.20;4.15;;;;;;;;;;4989061;28;20484;-79
2022/10/27 01:04:17;;;;;;;12.50;5.10;;;;;;;;;;4975252;28;20070;-81
2022/10/27 01:06:43;;;;;;;18.85;5.50;;;;;;;;;;4973914;28;20015;-79
2022/10/27 01:09:11;;;;;;;19.98;4.53;;;;;;;;;;4976877;28;20049;-78
2022/10/27 01:11:37;;;;;;;13.05;3.60;;;;;;;;;;4975922;28;20559;-79
2022/10/27 01:14:03;;;;;;;17.50;4.35;;;;;;;;;;4972086;28;20038;-79
2022/10/27 01:16:56;;;;;;;12.50;4.05;;;;;;;;;;4975473;28;20030;-79
2022/10/27 01:19:22;;;;;;;19.42;4.00;;;;;;;;;;4974039;28;20043;-79
2022/10/27 01:22:07;;;;;;;17.08;3.63;;;;;;;;;;4971764;28;20403;-79
2022/10/27 01:24:52;;;;;;;16.30;4.53;;;;;;;;;;4970414;28;20026;-81
2022/10/27 01:27:37;;;;;;;10.43;3.17;;;;;;;;;;4983140;28;20035;-80
2022/10/27 01:30:08;;;;;;;14.80;3.92;;;;;;;;;;4977841;28;20021;-80
2022/10/27 01:32:52;;;;;;;10.43;3.13;;;;;;;;;;4975675;28;20019;-79
2022/10/27 01:35:28;;;;;;;17.10;4.25;;;;;;;;;;4984475;28;20118;-79
2022/10/27 01:37:54;;;;;;;;;;;;;;;;;;4975989;28;20058;-81
2022/10/27 01:40:32;;;;;;;22.52;3.80;;;;;;;;;;4982768;28;19894;-79
2022/10/27 01:43:01;;;;;;;14.90;4.28;;;;;;;;;;4982525;28;20018;-79
2022/10/27 01:45:30;;;;;;;16.60;3.65;;;;;;;;;;4968362;28;20051;-79
2022/10/27 01:47:57;;;;;;;13.65;3.85;;;;;;;;;;4976142;28;20066;-79
2022/10/27 01:50:32;;;;;;;18.65;3.80;;;;;;;;;;4976098;28;20030;-79
2022/10/27 01:52:58;;;;;;;15.23;3.97;;;;;;;;;;4984231;28;20027;-79
2022/10/27 01:55:34;;;;;;;11.52;2.97;;;;;;;;;;4978760;28;20404;-79
2022/10/27 01:58:19;;;;;;;20.73;5.28;;;;;;;;;;4989337;28;20059;-79
2022/10/27 02:01:04;;;;;;;14.38;4.03;;;;;;;;;;4967956;28;20125;-79
2022/10/27 02:03:34;;;;;;;13.38;4.70;;;;;;;;;;4970715;28;20041;-79
2022/10/27 02:06:09;;;;;;;16.13;3.72;;;;;;;;;;4990736;28;20371;-80
2022/10/27 02:08:40;;;;;;;17.40;4.35;;;;;;;;;;4978827;28;20034;-79
2022/10/27 02:11:08;;;;;;;14.93;3.63;;;;;;;;;;4982389;28;20019;-78
2022/10/27 02:13:36;;;;;;;13.27;4.72;;;;;;;;;;4978270;28;20026;-79
2022/10/27 02:16:04;;;;;;;14.50;3.90;;;;;;;;;;4974728;28;20080;-80
2022/10/27 02:18:32;;;;;;;15.85;3.63;;;;;;;;;;4982273;28;20035;-81
2022/10/27 02:21:06;;;;;;;15.73;4.53;;;;;;;;;;4982950;28;20022;-79
2022/10/27 02:23:32;;;;;;;16.55;4.60;;;;;;;;;;4989644;28;20023;-79
2022/10/27 02:26:01;;;;;;;14.63;3.78;;;;;;;;;;4978184;28;20014;-80
2022/10/27 02:28:48;;;;;;;13.45;3.28;;;;;;;;;;4972800;28;20023;-81
2022/10/27 02:31:16;;;;;;;12.32;3.42;;;;;;;;;;4967659;28;20023;-80
2022/10/27 02:33:42;;;;;;;15.25;4.13;;;;;;;;;;4974549;28;20052;-80
2022/10/27 02:36:08;;;;;;;12.50;4.18;;;;;;;;;;4970801;28;20038;-80
2022/10/27 02:38:34;;;;;;;14.70;4.63;;;;;;;;;;4977316;28;20031;-81
2022/10/27 02:41:01;;;;;;;15.27;4.55;;;;;;;;;;4977731;28;20026;-79
2022/10/27 02:43:27;;;;;;;11.52;3.20;;;;;;;;;;4976811;28;20027;-80
2022/10/27 02:45:53;;;;;;;18.98;4.38;;;;;;;;;;4974772;28;20484;-80
2022/10/27 02:48:19;;;;;;;12.00;3.58;;;;;;;;;;4973923;28;20034;-79
2022/10/27 02:50:45;;;;;;;12.27;3.45;;;;;;;;;;4979386;28;20027;-81
2022/10/27 02:53:11;;;;;;;13.98;5.93;;;;;;;;;;4999260;28;20021;-78
2022/10/27 02:55:37;;;;;;;11.95;3.70;;;;;;;;;;4981721;28;20026;-80
2022/10/27 02:58:03;;;;;;;14.32;3.00;;;;;;;;;;4980578;28;20038;-79
2022/10/27 03:00:29;;;;;;;12.25;4.68;;;;;;;;;;4978039;28;20026;-79
2022/10/27 03:02:56;;;;;;;14.48;4.35;;;;;;;;;;4974079;28;20026;-79
2022/10/27 03:05:22;;;;;;;8.40;2.60;;;;;;;;;;4990485;28;20035;-80
2022/10/27 03:07:48;;;;;;;6.90;2.60;;;;;;;;;;4981312;28;20134;-79
2022/10/27 03:10:14;;;;;;;11.50;2.88;;;;;;;;;;4974248;28;20033;-79
2022/10/27 03:12:40;;;;;;;10.00;2.95;;;;;;;;;;4978253;28;20055;-80
2022/10/27 03:15:06;;;;;;;7.30;2.75;;;;;;;;;;4991835;28;20023;-79
2022/10/27 03:17:32;;;;;;;5.43;2.50;;;;;;;;;;4976290;28;20062;-78
2022/10/27 03:19:59;;;;;;;8.73;2.83;;;;;;;;;;4991998;28;20157;-78
2022/10/27 03:22:25;;;;;;;12.55;3.45;;;;;;;;;;4971221;28;20432;-78
2022/10/27 03:24:51;;;;;;;9.27;2.78;;;;;;;;;;4986309;28;20027;-77
2022/10/27 03:27:17;;;;;;;3.40;1.98;;;;;;;;;;4979567;28;20027;-78
2022/10/27 03:29:43;;;;;;;9.50;2.47;;;;;;;;;;4974119;28;20117;-77
2022/10/27 03:32:09;;;;;;;7.40;2.60;;;;;;;;;;4973251;28;20448;-78
2022/10/27 03:34:35;;;;;;;6.30;2.60;;;;;;;;;;4973608;28;20026;-78
2022/10/27 03:37:01;;;;;;;8.77;2.25;;;;;;;;;;4972683;28;20082;-79
2022/10/27 03:39:27;;;;;;;3.78;2.15;;;;;;;;;;4977016;28;20043;-78
2022/10/27 03:41:54;;;;;;;5.85;2.38;;;;;;;;;;4977653;28;20031;-78
2022/10/27 03:44:20;;;;;;;3.22;1.90;;;;;;;;;;4971014;28;21250;-77
2022/10/27 03:46:47;;;;;;;4.63;2.53;;;;;;;;;;4972564;28;20058;-78
2022/10/27 03:49:13;;;;;;;7.85;2.08;;;;;;;;;;4988210;28;20093;-79
2022/10/27 03:51:39;;;;;;;6.13;2.42;;;;;;;;;;4971685;28;20093;-78
2022/10/27 03:54:05;;;;;;;8.00;3.53;;;;;;;;;;4985514;28;20062;-78
2022/10/27 03:56:31;;;;;;;6.93;2.33;;;;;;;;;;4973210;28;20035;-78
2022/10/27 03:58:57;;;;;;;7.57;2.60;;;;;;;;;;4972365;28;20147;-78
2022/10/27 04:01:23;;;;;;;11.40;2.53;;;;;;;;;;4972883;28;20054;-78
2022/10/27 04:03:49;;;;;;;3.90;2.55;;;;;;;;;;4991320;28;20033;-78
2022/10/27 04:06:16;;;;;;;3.60;2.47;;;;;;;;;;4977137;28;20077;-78
2022/10/27 04:08:42;;;;;;;7.40;2.90;;;;;;;;;;4981269;28;20106;-78
2022/10/27 04:11:08;;;;;;;9.63;3.33;;;;;;;;;;4983518;28;20027;-77
2022/10/27 04:13:34;;;;;;;8.90;2.72;;;;;;;;;;4984199;28;20023;-77
2022/10/27 04:16:00;;;;;;;10.07;3.10;;;;;;;;;;4983808;28;20027;-78
2022/10/27 04:18:27;;;;;;;9.40;2.88;;;;;;;;;;4973886;28;20038;-78
2022/10/27 04:20:53;;;;;;;7.10;2.50;;;;;;;;;;4970710;28;20460;-78
2022/10/27 04:23:19;;;;;;;10.23;2.97;;;;;;;;;;4980495;28;20038;-77
2022/10/27 04:25:45;;;;;;;10.20;2.50;;;;;;;;;;4988018;28;20086;-78
2022/10/27 04:28:11;;;;;;;5.68;2.38;;;;;;;;;;4973428;28;20045;-78
2022/10/27 04:30:37;;;;;;;4.90;2.00;;;;;;;;;;4975079;28;20083;-78
2022/10/27 04:33:03;;;;;;;5.20;3.05;;;;;;;;;;4970011;28;20023;-77
2022/10/27 04:35:30;;;;;;;5.07;2.05;;;;;;;;;;4975444;28;20357;-77
2022/10/27 04:37:56;;;;;;;8.55;2.33;;;;;;;;;;4991981;28;20026;-77
2022/10/27 04:40:22;;;;;;;6.55;2.65;;;;;;;;;;4969348;28;20448;-76
2022/10/27 04:42:48;;;;;;;3.33;2.67;;;;;;;;;;4982177;28;20070;-77
2022/10/27 04:45:14;;;;;;;3.63;1.75;;;;;;;;;;4985922;28;20044;-78
2022/10/27 04:47:43;;;;;;;3.58;1.70;;;;;;;;;;4975496;28;20126;-77
2022/10/27 04:50:10;;;;;;;1.80;1.67;;;;;;;;;;4972220;28;20024;-78
2022/10/27 04:52:36;;;;;;;2.70;1.65;;;;;;;;;;4967155;28;20125;-77
2022/10/27 04:55:03;;;;;;;1.45;1.35;;;;;;;;;;4977097;28;20069;-80
2022/10/27 04:57:29;;;;;;;1.92;1.58;;;;;;;;;;4972936;28;20101;-78
2022/10/27 04:59:55;;;;;;;3.97;1.60;;;;;;;;;;4975910;28;20089;-77
2022/10/27 05:02:21;;;;;;;2.05;1.40;;;;;;;;;;4969289;28;20495;-78
2022/10/27 05:04:47;;;;;;;2.63;1.23;;;;;;;;;;4974268;28;20034;-77
2022/10/27 05:07:13;;;;;;;2.03;1.92;;;;;;;;;;4969389;28;20034;-77
2022/10/27 05:09:40;;;;;;;1.40;1.30;;;;;;;;;;4971894;28;20042;-77
2022/10/27 05:12:06;;;;;;;1.30;1.13;;;;;;;;;;4985460;28;20035;-77
2022/10/27 05:14:32;;;;;;;1.88;1.25;;;;;;;;;;4966183;28;20030;-78
2022/10/27 05:16:58;;;;;;;1.38;1.27;;;;;;;;;;4985663;28;20777;-78
2022/10/27 05:19:24;;;;;;;1.52;1.17;;;;;;;;;;4987650;28;20111;-78
2022/10/27 05:21:50;;;;;;;2.17;1.27;;;;;;;;;;4995269;28;20094;-79
2022/10/27 05:24:16;;;;;;;1.10;1.10;;;;;;;;;;4967774;28;20431;-78
2022/10/27 05:26:42;;;;;;;0.98;0.93;;;;;;;;;;4987388;28;20030;-78
2022/10/27 05:29:09;;;;;;;1.30;1.25;;;;;;;;;;4992434;28;20113;-76
2022/10/27 05:31:35;;;;;;;1.17;1.10;;;;;;;;;;4965120;28;20025;-77
2022/10/27 05:34:01;;;;;;;1.60;0.98;;;;;;;;;;4973546;28;20057;-78
2022/10/27 05:36:27;;;;;;;2.75;1.40;;;;;;;;;;4972942;28;20038;-78
2022/10/27 05:38:53;;;;;;;2.03;1.30;;;;;;;;;;4970115;28;20118;-81
2022/10/27 05:41:19;;;;;;;1.65;1.45;;;;;;;;;;4974996;28;20063;-78
2022/10/27 05:43:45;;;;;;;1.52;1.42;;;;;;;;;;4974609;28;20440;-78
2022/10/27 05:46:11;;;;;;;1.85;1.58;;;;;;;;;;4978021;28;20070;-78
2022/10/27 05:48:37;;;;;;;3.25;1.70;;;;;;;;;;4980439;28;20030;-79
2022/10/27 05:51:04;;;;;;;6.95;2.10;;;;;;;;;;4981094;28;20047;-78
2022/10/27 05:53:30;;;;;;;2.75;1.73;;;;;;;;;;4981676;28;20026;-78
2022/10/27 05:55:56;;;;;;;2.40;1.70;;;;;;;;;;4995743;28;20133;-78
2022/10/27 05:58:22;;;;;;;4.55;1.88;;;;;;;;;;4982895;28;20022;-78
2022/10/27 06:00:48;;;;;;;4.45;2.10;;;;;;;;;;4993094;28;20031;-78
2022/10/27 06:03:24;;;;;;;4.80;1.95;;;;;;;;;;4982275;28;20023;-78
2022/10/27 06:05:50;;;;;;;4.22;1.90;;;;;;;;;;4991670;28;20034;-78
2022/10/27 06:08:17;;;;;;;3.30;2.00;;;;;;;;;;4996194;28;20035;-78
2022/10/27 06:10:43;;;;;;;2.45;1.70;;;;;;;;;;4982091;28;20038;-78
2022/10/27 06:13:10;;;;;;;2.78;2.05;;;;;;;;;;4976319;28;20024;-80
2022/10/27 06:15:37;;;;;;;4.18;1.90;;;;;;;;;;4987660;28;20038;-79
2022/10/27 06:18:03;;;;;;;5.63;2.20;;;;;;;;;;4984462;28;20030;-78
2022/10/27 06:20:29;;;;;;;3.05;1.70;;;;;;;;;;4980452;28;20081;-79
2022/10/27 06:22:56;;;;;;;6.60;2.55;;;;;;;;;;4984373;28;20030;-79
2022/10/27 06:25:22;;;;;;;3.08;1.85;;;;;;;;;;4984790;28;20077;-80
2022/10/27 06:27:48;;;;;;;3.42;2.22;;;;;;;;;;4983482;28;20459;-78
2022/10/27 06:30:14;;;;;;;6.35;2.10;;;;;;;;;;4983469;28;20113;-79
2022/10/27 06:32:41;;;;;;;4.00;1.90;;;;;;;;;;4999663;28;20038;-78
2022/10/27 06:35:07;;;;;;;10.35;3.67;;;;;;;;;;4975663;28;20384;-79
2022/10/27 06:37:33;;;;;;;3.95;3.13;;;;;;;;;;4981868;28;20014;-78
2022/10/27 06:40:00;;;;;;;3.78;1.83;;;;;;;;;;4988717;28;20038;-79
2022/10/27 06:42:26;;;;;;;2.00;1.55;;;;;;;;;;4973563;28;20551;-79
2022/10/27 06:44:52;;;;;;;3.90;2.00;;;;;;;;;;4980049;28;20051;-79
2022/10/27 06:47:18;;;;;;;9.48;1.95;;;;;;;;;;4979485;28;20033;-79
2022/10/27 06:49:44;;;;;;;1.70;1.60;;;;;;;;;;4991102;28;21048;-80
2022/10/27 06:52:10;;;;;;;5.13;2.22;;;;;;;;;;4976023;28;20027;-79
2022/10/27 06:54:37;;;;;;;2.33;1.45;;;;;;;;;;4977570;28;20113;-81
2022/10/27 06:57:03;;;;;;;2.65;1.67;;;;;;;;;;4972948;28;20484;-79
2022/10/27 06:59:30;;;;;;;3.10;1.50;;;;;;;;;;4978835;28;20031;-80
2022/10/27 07:01:56;;;;;;;1.45;1.25;;;;;;;;;;4980288;28;20034;-80
2022/10/27 07:04:22;;;;;;;1.98;1.30;;;;;;;;;;4980059;28;20103;-80
2022/10/27 07:06:48;;;;;;;1.58;1.40;;;;;;;;;;4989218;28;20089;-78
2022/10/27 07:09:14;;;;;;;1.48;1.02;;;;;;;;;;4974572;28;20465;-78
2022/10/27 07:11:40;;;;;;;1.88;1.30;;;;;;;;;;4979297;28;20057;-78
2022/10/27 07:14:06;;;;;;;1.17;1.08;;;;;;;;;;4994475;28;20114;-78
2022/10/27 07:16:32;;;;;;;0.90;0.90;;;;;;;;;;4981879;28;20042;-79
2022/10/27 07:18:58;;;;;;;1.33;1.17;;;;;;;;;;4977884;28;20042;-78
2022/10/27 07:21:26;;;;;;;4.38;1.30;;;;;;;;;;4973741;28;20087;-79
2022/10/27 07:23:52;;;;;;;1.83;1.30;;;;;;;;;;4970807;28;20026;-78
2022/10/27 07:26:18;;;;;;;2.50;1.33;;;;;;;;;;4969471;28;20032;-78
2022/10/27 07:28:44;;;;;;;3.58;1.55;;;;;;;;;;4973640;28;20476;-82
2022/10/27 07:31:11;;;;;;;1.90;1.77;;;;;;;;;;4985044;28;20028;-79
2022/10/27 07:33:37;;;;;;;3.65;1.50;;;;;;;;;;4992515;28;20033;-79
2022/10/27 07:36:03;;;;;;;1.70;1.40;;;;;;;;;;4975299;28;20047;-81
2022/10/27 07:38:29;;;;;;;3.30;1.70;;;;;;;;;;4977651;28;20113;-80
2022/10/27 07:40:56;;;;;;;3.42;1.70;;;;;;;;;;4979628;28;20026;-78
2022/10/27 07:43:22;;;;;;;1.67;1.40;;;;;;;;;;4978323;28;20043;-79
2022/10/27 07:45:48;;;;;;;1.58;1.48;;;;;;;;;;4990574;28;20058;-77
2022/10/27 07:48:15;;;;;;;5.45;1.48;;;;;;;;;;4984501;28;20030;-81
2022/10/27 07:50:42;;;;;;;2.03;1.30;;;;;;;;;;4971810;28;20117;-78
2022/10/27 07:53:08;;;;;;;3.25;1.40;;;;;;;;;;4991441;28;20023;-78
2022/10/27 07:55:36;;;;;;;1.90;1.38;;;;;;;;;;4978634;28;20510;-83
2022/10/27 07:58:06;;;;;;;2.53;1.40;;;;;;;;;;4980145;28;20098;-78
2022/10/27 08:00:34;;;;;;;1.65;1.40;;;;;;;;;;4979251;28;20069;-78
2022/10/27 08:03:00;;;;;;;2.90;1.25;;;;;;;;;;4977843;28;20093;-80
2022/10/27 08:05:27;;;;;;;1.42;1.33;;;;;;;;;;4977398;28;20014;-81
2022/10/27 08:07:56;;;;;;;1.40;1.30;;;;;;;;;;4979163;28;20026;-79
2022/10/27 08:10:22;;;;;;;1.50;1.30;;;;;;;;;;4979058;28;20034;-79
2022/10/27 08:12:48;;;;;;;1.40;1.30;;;;;;;;;;4992719;28;20613;-78
2022/10/27 08:15:15;;;;;;;3.08;2.03;;;;;;;;;;4977580;28;20365;-78
2022/10/27 08:17:41;;;;;;;2.70;1.67;;;;;;;;;;4977658;28;20038;-79
2022/10/27 08:20:08;;;;;;;2.80;1.60;;;;;;;;;;4980579;28;20106;-80
2022/10/27 08:22:34;;;;;;;2.78;2.10;;;;;;;;;;4990063;28;20109;-79
2022/10/27 08:25:00;;;;;;;2.55;1.70;;;;;;;;;;4987308;28;20027;-79
2022/10/27 08:27:26;;;;;;;3.55;1.95;;;;;;;;;;4974836;28;20030;-79
2022/10/27 08:29:52;;;;;;;4.03;2.00;;;;;;;;;;4975494;28;20370;-79
2022/10/27 08:32:18;;;;;;;6.25;2.10;;;;;;;;;;4967239;28;20046;-80
2022/10/27 08:34:44;;;;;;;4.85;1.90;;;;;;;;;;4970155;28;20102;-79
2022/10/27 08:37:10;;;;;;;9.95;3.00;;;;;;;;;;4969873;28;20092;-79
2022/10/27 08:39:36;;;;;;;6.80;2.10;;;;;;;;;;4984474;28;20076;-79
2022/10/27 08:42:05;;;;;;;8.27;2.10;;;;;;;;;;4979000;28;20054;-79
2022/10/27 08:44:58;;;;;;;3.47;1.92;;;;;;;;;;4974282;28;20561;-79
2022/10/27 08:47:28;;;;;;;6.53;1.95;;;;;;;;;;4980490;28;20053;-79
2022/10/27 08:50:03;;;;;;;6.70;2.55;;;;;;;;;;4978071;28;20033;-79
2022/10/27 08:52:33;;;;;;;4.50;2.13;;;;;;;;;;4968471;28;20034;-79
2022/10/27 08:55:08;;;;;;;2.95;2.20;;;;;;;;;;4989983;28;20031;-79
2022/10/27 08:57:35;;;;;;;5.22;2.10;;;;;;;;;;4971731;28;20034;-79
2022/10/27 09:00:01;;;;;;;9.10;3.03;;;;;;;;;;4971035;28;20035;-79
2022/10/27 09:02:27;;;;;;;4.97;2.25;;;;;;;;;;4994420;28;20173;-79
2022/10/27 09:05:02;;;;;;;7.13;2.20;;;;;;;;;;4972184;28;20003;-79
2022/10/27 09:07:36;;;;;;;3.28;2.40;;;;;;;;;;4977636;28;20015;-78
2022/10/27 09:10:11;;;;;;;5.88;2.00;;;;;;;;;;4977273;28;20035;-78
2022/10/27 09:12:55;;;;;;;11.52;2.42;;;;;;;;;;4979302;28;20038;-79
2022/10/27 09:15:40;;;;;;;6.15;2.45;;;;;;;;;;4989532;28;20531;-78
2022/10/27 09:18:24;;;;;;;4.18;2.10;;;;;;;;;;4975877;28;20070;-78
2022/10/27 09:20:52;;;;;;;4.68;2.33;;;;;;;;;;4975094;28;20043;-79
2022/10/27 09:23:19;;;;;;;8.40;3.38;;;;;;;;;;4980893;28;20045;-78
2022/10/27 09:25:47;;;;;;;7.43;2.45;;;;;;;;;;4978628;28;20042;-78
2022/10/27 09:28:23;;;;;;;11.80;2.95;;;;;;;;;;4989777;28;20027;-79
2022/10/27 09:30:50;;;;;;;5.47;2.92;;;;;;;;;;4960715;28;20034;-78
2022/10/27 09:33:18;;;;;;;4.82;2.40;;;;;;;;;;4989389;28;20026;-78
2022/10/27 09:35:44;;;;;;;4.35;2.15;;;;;;;;;;4973739;28;20113;-78
2022/10/27 09:38:12;;;;;;;7.65;2.45;;;;;;;;;;4977208;28;20026;-78
2022/10/27 09:40:38;;;;;;;7.20;2.03;;;;;;;;;;4969904;28;20129;-77
2022/10/27 09:43:05;;;;;;;5.22;2.15;;;;;;;;;;4998957;28;20039;-80
2022/10/27 09:45:31;;;;;;;3.72;2.00;;;;;;;;;;4984005;28;20042;-76
2022/10/27 09:47:59;;;;;;;3.05;1.63;;;;;;;;;;4977388;28;20059;-77
2022/10/27 09:50:39;;;;;;;2.92;2.10;;;;;;;;;;4972344;28;20476;-77
2022/10/27 09:53:06;;;;;;;3.00;1.85;;;;;;;;;;4970573;28;20041;-76
2022/10/27 09:55:52;;;;;;;1.73;1.60;;;;;;;;;;4985216;28;20384;-76
2022/10/27 09:58:19;;;;;;;1.80;1.70;;;;;;;;;;4980156;28;20453;-77
2022/10/27 10:00:55;;;;;;;3.25;1.75;;;;;;;;;;4985941;28;20114;-77
2022/10/27 10:03:21;;;;;;;2.75;1.55;;;;;;;;;;4975711;28;20034;-76
2022/10/27 10:06:01;;;;;;;1.60;1.50;;;;;;;;;;4973429;28;20043;-76
2022/10/27 10:08:30;;;;;;;2.13;1.60;;;;;;;;;;4963598;28;20526;-76
2022/10/27 10:10:57;;;;;;;1.40;1.30;;;;;;;;;;4986065;28;20026;-76
2022/10/27 10:13:24;;;;;;;2.85;1.65;;;;;;;;;;4977169;28;20027;-77
2022/10/27 10:16:11;;;;;;;1.65;1.42;;;;;;;;;;4968929;28;20031;-75
2022/10/27 10:18:38;;;;;;;1.90;1.52;;;;;;;;;;4960889;28;20408;-78
2022/10/27 10:21:05;;;;;;;1.88;1.52;;;;;;;;;;4970947;28;20034;-77
2022/10/27 10:23:33;;;;;;;2.80;1.30;;;;;;;;;;4974557;28;20031;-78
2022/10/27 10:26:01;;;;;;;1.98;1.70;;;;;;;;;;4969163;28;20058;-75
2022/10/27 10:28:33;;;;;;;3.33;1.50;;;;;;;;;;4975825;28;20039;-75
2022/10/27 10:30:59;;;;;;;2.60;1.58;;;;;;;;;;4988772;28;20082;-76
2022/10/27 10:33:28;;;;;;;1.77;1.50;;;;;;;;;;4972945;28;20019;-76
2022/10/27 10:35:54;;;;;;;3.47;1.73;;;;;;;;;;4974632;28;20031;-75
2022/10/27 10:38:23;;;;;;;1.73;1.63;;;;;;;;;;4972745;28;20037;-75
2022/10/27 10:41:05;;;;;;;5.97;1.67;;;;;;;;;;4980138;28;20420;-78
2022/10/27 10:43:31;;;;;;;1.98;1.77;;;;;;;;;;4972580;28;20037;-76
2022/10/27 10:45:58;;;;;;;5.15;1.65;;;;;;;;;;4972204;28;20054;-75
2022/10/27 10:48:46;;;;;;;1.90;1.60;;;;;;;;;;4967950;28;20778;-76
2022/10/27 10:51:13;;;;;;;3.45;1.80;;;;;;;;;;4972791;28;20142;-76
2022/10/27 10:53:41;;;;;;;5.53;1.88;;;;;;;;;;4977280;28;20090;-76
2022/10/27 10:56:19;;;;;;;4.97;1.85;;;;;;;;;;4974771;28;20037;-76
2022/10/27 10:58:46;;;;;;;3.03;1.80;;;;;;;;;;4970196;28;20023;-75
2022/10/27 11:01:12;;;;;;;4.60;1.95;;;;;;;;;;4969013;28;20034;-76
2022/10/27 11:03:43;;;;;;;3.33;1.98;;;;;;;;;;4967137;28;20085;-75
2022/10/27 11:06:20;;;;;;;3.38;1.90;;;;;;;;;;4971937;28;20063;-76
2022/10/27 11:08:58;;;;;;;1.90;1.80;;;;;;;;;;4970775;28;20038;-76
2022/10/27 11:11:25;;;;;;;2.72;1.80;;;;;;;;;;4971496;28;20031;-76
2022/10/27 11:13:57;;;;;;;5.00;1.90;;;;;;;;;;4987330;28;20094;-75
2022/10/27 11:16:24;;;;;;;4.15;2.10;;;;;;;;;;4977311;28;20031;-76
2022/10/27 11:18:51;;;;;;;8.13;2.58;;;;;;;;;;4983321;28;20022;-79
2022/10/27 11:21:17;;;;;;;6.68;2.80;;;;;;;;;;4976713;28;20045;-76
2022/10/27 11:23:57;;;;;;;3.72;2.10;;;;;;;;;;4982094;28;20117;-75
2022/10/27 11:26:43;;;;;;;8.85;2.50;;;;;;;;;;4990236;28;20050;-76
2022/10/27 11:29:21;;;;;;;6.15;2.60;;;;;;;;;;4959841;28;20384;-73
2022/10/27 11:31:58;;;;;;;4.47;2.20;;;;;;;;;;4968417;28;20058;-74
2022/10/27 11:34:34;;;;;;;6.18;2.97;;;;;;;;;;4970797;28;20595;-76
2022/10/27 11:37:17;;;;;;;8.15;2.50;;;;;;;;;;4978872;28;20019;-75
2022/10/27 11:39:47;;;;;;;4.93;2.20;;;;;;;;;;4975466;28;20046;-74
2022/10/27 11:42:13;;;;;;;13.35;3.45;;;;;;;;;;4981198;28;20110;-75
2022/10/27 11:44:39;;;;;;;5.78;2.45;;;;;;;;;;4972493;28;20400;-75
2022/10/27 11:47:08;;;;;;;8.38;2.83;;;;;;;;;;4970830;28;20073;-75
2022/10/27 11:49:44;;;;;;;9.32;3.30;;;;;;;;;;4972329;28;20708;-75
2022/10/27 11:52:15;;;;;;;3.65;2.50;;;;;;;;;;4973383;28;20035;-74
2022/10/27 11:54:41;;;;;;;8.90;2.83;;;;;;;;;;4985857;28;20035;-74
2022/10/27 11:57:34;;;;;;;13.93;3.35;;;;;;;;;;4973050;28;20034;-75
2022/10/27 12:00:06;;;;;;;8.80;2.60;;;;;;;;;;4968510;28;20049;-75
2022/10/27 12:02:32;;;;;;;8.75;2.60;;;;;;;;;;4987841;28;20034;-74
2022/10/27 12:05:16;;;;;;;11.93;2.53;;;;;;;;;;4968410;28;20061;-74
2022/10/27 12:08:02;;;;;;;8.40;2.88;;;;;;;;;;4967488;28;20053;-75
2022/10/27 12:10:28;;;;;;;9.20;2.92;;;;;;;;;;4969329;28;20062;-74
2022/10/27 12:13:01;;;;;;;10.25;2.78;;;;;;;;;;4970686;28;20039;-74
2022/10/27 12:15:39;;;;;;;10.68;3.60;;;;;;;;;;4966130;28;20055;-74
2022/10/27 12:18:10;;;;;;;8.52;2.65;;;;;;;;;;4980745;28;20027;-74
2022/10/27 12:20:49;;;;;;;6.30;2.90;;;;;;;;;;4983598;28;20027;-74
2022/10/27 12:23:18;;;;;;;7.97;3.53;;;;;;;;;;4973263;28;20033;-74
2022/10/27 12:26:07;;;;;;;6.13;2.50;;;;;;;;;;4974224;28;20042;-74
2022/10/27 12:28:34;;;;;;;7.25;2.60;;;;;;;;;;4983192;28;20042;-74
2022/10/27 12:31:01;;;;;;;8.68;2.67;;;;;;;;;;4968048;28;20033;-74
2022/10/27 12:33:34;;;;;;;6.88;2.30;;;;;;;;;;4975461;28;20038;-75
2022/10/27 12:36:14;;;;;;;6.68;2.83;;;;;;;;;;4964848;28;20078;-75
2022/10/27 12:38:57;;;;;;;6.55;2.40;;;;;;;;;;4989233;28;20030;-75
2022/10/27 12:41:31;;;;;;;7.07;2.40;;;;;;;;;;4969293;28;20029;-74
2022/10/27 12:44:06;;;;;;;8.57;2.58;;;;;;;;;;4985818;28;20690;-75
2022/10/27 12:46:41;;;;;;;8.77;2.83;;;;;;;;;;4971414;28;20047;-75
2022/10/27 12:49:07;;;;;;;;;;;;;;;;;;4982120;28;20041;-75
2022/10/27 12:51:51;;;;;;;5.07;3.03;;;;;;;;;;4976789;28;19913;-76
2022/10/27 12:54:17;;;;;;;4.68;2.60;;;;;;;;;;4991020;28;20097;-76
2022/10/27 12:56:50;;;;;;;9.38;2.90;;;;;;;;;;4976391;28;20057;-75
2022/10/27 12:59:35;;;;;;;6.35;2.90;;;;;;;;;;4975974;28;20093;-75
2022/10/27 13:02:10;;;;;;;6.47;2.83;;;;;;;;;;4988295;28;20050;-78
2022/10/27 13:04:55;;;;;;;5.13;2.30;;;;;;;;;;4988127;28;20476;-74
2022/10/27 13:07:30;;;;;;;7.00;2.83;;;;;;;;;;4977129;28;20035;-76
2022/10/27 13:09:56;;;;;;;;;;;;;;;;;;4981710;28;20035;-75
2022/10/27 13:12:31;;;;;;;5.68;2.85;;;;;;;;;;4967332;28;19910;-76
2022/10/27 13:15:13;;;;;;;9.20;3.40;;;;;;;;;;4968543;28;20376;-74
2022/10/27 13:17:49;;;;;;;7.47;2.72;;;;;;;;;;4967937;28;20039;-74
2022/10/27 13:20:38;;;;;;;8.73;2.80;;;;;;;;;;4965594;28;20035;-75
2022/10/27 13:23:11;;;;;;;6.00;3.00;;;;;;;;;;4965673;28;20340;-74
2022/10/27 13:25:47;;;;;;;7.72;2.30;;;;;;;;;;4965119;28;20049;-76
2022/10/27 13:28:32;;;;;;;7.30;3.13;;;;;;;;;;4973444;28;20488;-75
2022/10/27 13:31:03;;;;;;;6.05;2.17;;;;;;;;;;4967626;28;20427;-75
2022/10/27 13:33:32;;;;;;;11.10;3.33;;;;;;;;;;4970364;28;20031;-75
2022/10/27 13:36:18;;;;;;;8.93;2.80;;;;;;;;;;4964503;28;20050;-75
2022/10/27 13:38:45;;;;;;;9.80;3.10;;;;;;;;;;4966141;28;20046;-76
2022/10/27 13:41:11;;;;;;;8.18;2.35;;;;;;;;;;4967721;28;20031;-75
2022/10/27 13:43:37;;;;;;;6.72;2.78;;;;;;;;;;4970068;28;20475;-75
2022/10/27 13:46:03;;;;;;;8.90;3.00;;;;;;;;;;4973060;28;20061;-75
2022/10/27 13:48:33;;;;;;;14.10;3.67;;;;;;;;;;4983597;28;20083;-75
2022/10/27 13:51:19;;;;;;;6.78;2.92;;;;;;;;;;4968759;28;20118;-74
2022/10/27 13:53:45;;;;;;;13.23;4.63;;;;;;;;;;4969472;28;20038;-75
2022/10/27 13:56:14;;;;;;;10.65;3.83;;;;;;;;;;4971228;28;20054;-75
2022/10/27 13:58:59;;;;;;;7.97;3.55;;;;;;;;;;4964444;28;20031;-75
2022/10/27 14:01:29;;;;;;;7.65;3.35;;;;;;;;;;4986100;28;20035;-75
2022/10/27 14:03:55;;;;;;;11.93;3.08;;;;;;;;;;4972960;28;20019;-75
2022/10/27 14:06:24;;;;;;;10.68;2.65;;;;;;;;;;4974183;28;20035;-75
2022/10/27 14:08:51;;;;;;;13.70;3.78;;;;;;;;;;4978465;28;20040;-75
2022/10/27 14:11:19;;;;;;;7.50;2.53;;;;;;;;;;4982339;28;20035;-75
2022/10/27 14:13:47;;;;;;;8.48;2.92;;;;;;;;;;4973082;28;20062;-75
2022/10/27 14:16:16;;;;;;;9.88;2.67;;;;;;;;;;4978850;28;20476;-75
2022/10/27 14:18:42;;;;;;;9.30;3.78;;;;;;;;;;4973696;28;20538;-75
2022/10/27 14:21:22;;;;;;;5.18;2.72;;;;;;;;;;4972120;28;20031;-74
2022/10/27 14:23:49;;;;;;;9.68;3.05;;;;;;;;;;4986856;28;20039;-75
2022/10/27 14:26:25;;;;;;;11.32;3.40;;;;;;;;;;4972375;28;20039;-74
2022/10/27 14:28:51;;;;;;;7.20;2.85;;;;;;;;;;4987565;28;20062;-75
2022/10/27 14:31:18;;;;;;;6.70;3.00;;;;;;;;;;4974245;28;20082;-74
2022/10/27 14:33:45;;;;;;;5.15;2.60;;;;;;;;;;4968675;28;20086;-75
2022/10/27 14:36:19;;;;;;;7.15;2.30;;;;;;;;;;4987756;28;20035;-74
2022/10/27 14:38:50;;;;;;;8.63;3.08;;;;;;;;;;4979642;28;20034;-75
2022/10/27 14:41:20;;;;;;;8.90;3.30;;;;;;;;;;4969573;28;20038;-75
2022/10/27 14:43:49;;;;;;;9.65;2.97;;;;;;;;;;4984772;28;20019;-74
2022/10/27 14:46:17;;;;;;;6.25;3.25;;;;;;;;;;4976319;28;20500;-75
2022/10/27 14:48:43;;;;;;;9.70;3.45;;;;;;;;;;4975550;28;20451;-76
2022/10/27 14:51:13;;;;;;;8.48;3.00;;;;;;;;;;4983002;28;20103;-76
2022/10/27 14:53:40;;;;;;;9.43;3.20;;;;;;;;;;4974262;28;20064;-76